createdAt,value
2019-03-25T00:00:48.958Z,99.90
2019-03-25T00:03:17.953Z,99.40
2019-03-25T00:05:47.322Z,98.70
2019-03-25T00:08:16.576Z,99.00
2019-03-25T00:10:45.904Z,99.90
2019-03-25T00:13:15.401Z,99.90
2019-03-25T00:15:44.546Z,99.90
2019-03-25T00:18:13.825Z,99.90
2019-03-25T00:20:42.976Z,99.90
2019-03-25T00:23:11.912Z,99.90
2019-03-25T00:25:41.066Z,99.90
2019-03-25T00:28:10.312Z,99.90
2019-03-25T00:30:39.651Z,99.90
2019-03-25T00:33:08.808Z,99.90
2019-03-25T00:35:37.896Z,99.90
2019-03-25T00:38:06.944Z,99.90
2019-03-25T00:40:36.256Z,99.90
2019-03-25T00:43:05.350Z,99.90
2019-03-25T00:45:34.442Z,99.90
2019-03-25T00:48:03.677Z,99.90
2019-03-25T00:50:32.968Z,99.90
2019-03-25T00:53:01.945Z,99.90
2019-03-25T00:55:30.952Z,99.90
2019-03-25T00:58:00.064Z,99.90
2019-03-25T01:00:29.352Z,99.90
2019-03-25T01:02:58.392Z,99.90
2019-03-25T01:05:27.388Z,99.90
2019-03-25T01:07:56.552Z,99.90
2019-03-25T01:10:25.617Z,99.90
2019-03-25T01:12:54.553Z,99.90
2019-03-25T01:15:23.505Z,99.90
2019-03-25T01:17:52.424Z,99.90
2019-03-25T01:20:21.467Z,99.90
2019-03-25T01:22:50.392Z,99.90
2019-03-25T01:25:19.424Z,99.90
2019-03-25T01:27:48.351Z,99.90
2019-03-25T01:30:17.248Z,99.90
2019-03-25T01:32:46.216Z,99.90
2019-03-25T01:35:15.368Z,99.90
2019-03-25T01:37:44.336Z,99.90
2019-03-25T01:40:14.760Z,99.90
2019-03-25T01:42:43.632Z,99.90
2019-03-25T01:45:12.640Z,99.90
2019-03-25T01:47:41.704Z,99.90
2019-03-25T01:50:11.082Z,99.90
2019-03-25T01:52:40.064Z,99.90
2019-03-25T01:55:13.600Z,99.90
2019-03-25T01:57:39.936Z,99.90
2019-03-25T02:00:10.033Z,99.90
2019-03-25T02:02:39.128Z,99.90
2019-03-25T02:05:08.248Z,99.90
2019-03-25T02:07:37.436Z,99.90
2019-03-25T02:10:08.320Z,99.90
2019-03-25T02:12:37.400Z,99.90
2019-03-25T02:15:06.840Z,99.90
2019-03-25T02:17:35.688Z,99.90
2019-03-25T02:20:05.933Z,99.90
2019-03-25T02:22:34.977Z,99.90
2019-03-25T02:25:05.112Z,99.90
2019-03-25T02:27:34.297Z,99.90
2019-03-25T02:30:04.417Z,99.90
2019-03-25T02:32:33.521Z,99.90
2019-03-25T02:35:04.656Z,99.90
2019-03-25T02:37:33.162Z,99.90
2019-03-25T02:40:02.034Z,99.90
2019-03-25T02:42:30.952Z,99.90
2019-03-25T02:45:00.026Z,99.90
2019-03-25T02:47:29.137Z,99.90
2019-03-25T02:49:58.049Z,99.90
2019-03-25T02:52:27.384Z,99.90
2019-03-25T02:54:56.504Z,99.90
2019-03-25T02:57:26.026Z,99.90
2019-03-25T02:59:54.962Z,99.90
2019-03-25T03:02:23.890Z,99.90
2019-03-25T03:04:52.955Z,99.90
2019-03-25T03:07:21.977Z,99.90
2019-03-25T03:09:50.819Z,99.90
2019-03-25T03:12:19.713Z,99.90
2019-03-25T03:14:48.632Z,99.90
2019-03-25T03:17:17.670Z,99.90
2019-03-25T03:19:46.752Z,99.90
2019-03-25T03:22:15.625Z,99.90
2019-03-25T03:24:44.529Z,99.90
2019-03-25T03:27:13.760Z,99.90
2019-03-25T03:29:42.757Z,99.90
2019-03-25T03:32:11.653Z,99.90
2019-03-25T03:34:40.674Z,99.90
2019-03-25T03:37:09.618Z,99.90
2019-03-25T03:39:38.698Z,99.90
2019-03-25T03:42:08.033Z,99.90
2019-03-25T03:44:37.041Z,99.90
2019-03-25T03:47:05.968Z,99.90
2019-03-25T03:49:35.069Z,99.90
2019-03-25T03:52:04.113Z,99.90
2019-03-25T03:54:33.329Z,99.90
2019-03-25T03:57:02.393Z,99.90
2019-03-25T03:59:31.601Z,99.90
2019-03-25T04:02:00.504Z,99.90
2019-03-25T04:04:29.459Z,99.90
2019-03-25T04:06:58.443Z,99.90
2019-03-25T04:09:27.440Z,99.90
2019-03-25T04:11:56.379Z,99.90
2019-03-25T04:14:25.436Z,99.90
2019-03-25T04:16:55.066Z,99.90
2019-03-25T04:19:24.169Z,99.90
2019-03-25T04:21:54.113Z,99.90
2019-03-25T04:24:23.635Z,99.90
2019-03-25T04:26:52.748Z,99.90
2019-03-25T04:29:21.762Z,99.90
2019-03-25T04:31:50.678Z,99.90
2019-03-25T04:34:19.800Z,99.90
2019-03-25T04:36:49.001Z,99.90
2019-03-25T04:39:17.993Z,99.90
2019-03-25T04:41:46.961Z,98.70
2019-03-25T04:44:16.417Z,98.70
2019-03-25T04:46:45.800Z,98.60
2019-03-25T04:49:14.808Z,97.40
2019-03-25T04:51:44.995Z,96.70
2019-03-25T04:54:14.384Z,97.10
2019-03-25T04:56:43.440Z,97.00
2019-03-25T04:59:12.534Z,97.70
2019-03-25T05:01:41.424Z,97.60
2019-03-25T05:04:10.633Z,97.00
2019-03-25T05:06:39.752Z,97.80
2019-03-25T05:09:08.880Z,98.30
2019-03-25T05:11:38.144Z,98.70
2019-03-25T05:14:07.209Z,98.40
2019-03-25T05:16:36.056Z,98.20
2019-03-25T05:19:05.264Z,97.80
2019-03-25T05:21:34.239Z,97.40
2019-03-25T05:24:03.264Z,97.50
2019-03-25T05:26:32.248Z,97.10
2019-03-25T05:29:01.594Z,97.60
2019-03-25T05:31:31.043Z,97.70
2019-03-25T05:34:00.338Z,97.70
2019-03-25T05:36:29.377Z,97.80
2019-03-25T05:38:58.288Z,97.10
2019-03-25T05:41:27.456Z,97.10
2019-03-25T05:43:56.385Z,97.50
2019-03-25T05:46:25.625Z,97.50
2019-03-25T05:48:54.802Z,97.90
2019-03-25T05:51:23.889Z,97.70
2019-03-25T05:53:52.976Z,97.80
2019-03-25T05:56:22.188Z,97.90
2019-03-25T05:58:51.168Z,98.00
2019-03-25T06:01:20.763Z,97.90
2019-03-25T06:03:49.713Z,98.70
2019-03-25T06:06:18.811Z,98.70
2019-03-25T06:08:47.848Z,98.30
2019-03-25T06:11:16.824Z,98.60
2019-03-25T06:13:45.921Z,98.00
2019-03-25T06:16:14.994Z,98.20
2019-03-25T06:18:44.016Z,98.00
2019-03-25T06:21:13.002Z,97.40
2019-03-25T06:23:42.024Z,98.10
2019-03-25T06:26:11.016Z,98.10
2019-03-25T06:28:40.136Z,97.70
2019-03-25T06:31:09.152Z,97.60
2019-03-25T06:33:37.984Z,97.70
2019-03-25T06:36:07.025Z,97.60
2019-03-25T06:38:36.072Z,97.80
2019-03-25T06:41:05.498Z,97.50
2019-03-25T06:43:35.249Z,97.60
2019-03-25T06:46:04.730Z,98.10
2019-03-25T06:48:34.386Z,98.00
2019-03-25T06:51:03.561Z,97.60
2019-03-25T06:53:32.720Z,97.50
2019-03-25T06:56:01.866Z,97.60
2019-03-25T06:58:30.888Z,97.50
2019-03-25T07:01:00.296Z,98.10
2019-03-25T07:03:29.897Z,99.40
2019-03-25T07:05:59.241Z,99.90
2019-03-25T07:08:28.201Z,99.90
2019-03-25T07:10:57.240Z,99.90
2019-03-25T07:13:26.633Z,99.90
2019-03-25T07:15:55.569Z,99.90
2019-03-25T07:18:24.731Z,99.90
2019-03-25T07:20:54.074Z,99.90
2019-03-25T07:23:23.225Z,99.90
2019-03-25T07:25:52.386Z,99.90
2019-03-25T07:28:21.617Z,99.90
2019-03-25T07:30:50.737Z,99.90
2019-03-25T07:33:19.776Z,99.90
2019-03-25T07:35:48.744Z,99.90
2019-03-25T07:38:17.628Z,99.90
2019-03-25T07:40:46.681Z,99.40
2019-03-25T07:43:15.925Z,98.80
2019-03-25T07:45:45.057Z,98.50
2019-03-25T07:48:14.097Z,97.90
2019-03-25T07:50:45.250Z,98.00
2019-03-25T07:53:16.099Z,98.50
2019-03-25T07:55:45.481Z,98.70
2019-03-25T07:58:14.592Z,99.30
2019-03-25T08:00:43.734Z,98.90
2019-03-25T08:03:12.902Z,98.30
2019-03-25T08:05:41.976Z,98.50
2019-03-25T08:08:11.057Z,98.40
2019-03-25T08:10:40.130Z,98.50
2019-03-25T08:13:09.443Z,98.00
2019-03-25T08:15:38.687Z,97.40
2019-03-25T08:18:08.038Z,97.00
2019-03-25T08:20:37.345Z,97.40
2019-03-25T08:23:06.594Z,97.50
2019-03-25T08:25:37.267Z,97.40
2019-03-25T08:28:07.004Z,98.00
2019-03-25T08:30:36.769Z,98.90
2019-03-25T08:33:05.977Z,99.90
2019-03-25T08:35:35.377Z,99.90
2019-03-25T08:38:04.570Z,99.90
2019-03-25T08:40:34.056Z,99.90
2019-03-25T08:43:03.331Z,99.90
2019-03-25T08:45:32.507Z,99.90
2019-03-25T08:48:01.554Z,99.90
2019-03-25T08:50:31.011Z,99.90
2019-03-25T08:53:00.441Z,99.90
2019-03-25T08:55:29.490Z,99.90
2019-03-25T08:57:58.504Z,99.90
2019-03-25T09:00:27.492Z,99.90
2019-03-25T09:02:56.512Z,99.90
2019-03-25T09:05:25.408Z,99.90
2019-03-25T09:07:54.320Z,99.90
2019-03-25T09:10:23.288Z,99.90
2019-03-25T09:12:52.153Z,99.90
2019-03-25T09:15:21.130Z,99.90
2019-03-25T09:17:50.017Z,99.90
2019-03-25T09:20:19.161Z,99.90
2019-03-25T09:22:48.586Z,99.90
2019-03-25T09:25:18.146Z,99.90
2019-03-25T09:27:47.612Z,99.90
2019-03-25T09:30:35.833Z,99.90
2019-03-25T09:33:06.137Z,99.90
2019-03-25T09:35:36.145Z,99.90
2019-03-25T09:38:05.129Z,99.90
2019-03-25T09:40:34.136Z,99.90
2019-03-25T09:43:03.000Z,99.90
2019-03-25T09:45:32.057Z,99.90
2019-03-25T09:48:02.936Z,99.90
2019-03-25T09:50:31.737Z,99.90
2019-03-25T09:53:00.832Z,99.90
2019-03-25T09:55:30.288Z,99.90
2019-03-25T09:57:59.521Z,99.90
2019-03-25T10:00:32.688Z,99.40
2019-03-25T10:03:02.073Z,99.30
2019-03-25T10:05:31.730Z,97.20
2019-03-25T10:08:00.856Z,99.90
2019-03-25T10:10:30.233Z,99.50
2019-03-25T10:12:59.152Z,98.80
2019-03-25T10:15:28.144Z,97.60
2019-03-25T10:17:57.066Z,97.10
2019-03-25T10:20:26.088Z,95.90
2019-03-25T10:22:55.008Z,97.70
2019-03-25T10:25:24.017Z,95.80
2019-03-25T10:27:53.136Z,97.50
2019-03-25T10:30:24.098Z,97.10
2019-03-25T10:32:53.673Z,94.70
2019-03-25T10:35:22.561Z,94.40
2019-03-25T10:37:51.618Z,96.80
2019-03-25T10:40:20.752Z,94.30
2019-03-25T10:42:49.912Z,95.90
2019-03-25T10:45:22.195Z,95.00
2019-03-25T10:47:51.812Z,95.10
2019-03-25T10:50:21.738Z,93.60
2019-03-25T10:52:51.666Z,94.90
2019-03-25T10:55:20.768Z,94.50
2019-03-25T10:57:49.832Z,93.10
2019-03-25T11:00:19.299Z,94.00
2019-03-25T11:02:48.392Z,93.60
2019-03-25T11:05:17.544Z,95.10
2019-03-25T11:07:46.713Z,93.30
2019-03-25T11:10:16.210Z,92.30
2019-03-25T11:12:45.367Z,93.70
2019-03-25T11:15:14.488Z,93.10
2019-03-25T11:17:43.528Z,92.60
2019-03-25T11:20:12.830Z,91.70
2019-03-25T11:22:41.751Z,92.40
2019-03-25T11:25:12.208Z,92.00
2019-03-25T11:27:41.149Z,93.00
2019-03-25T11:30:12.464Z,90.60
2019-03-25T11:32:44.866Z,90.80
2019-03-25T11:35:14.368Z,84.40
2019-03-25T11:37:44.064Z,86.20
2019-03-25T11:40:14.232Z,90.10
2019-03-25T11:42:43.200Z,87.10
2019-03-25T11:45:12.760Z,87.00
2019-03-25T11:47:41.864Z,83.50
2019-03-25T11:50:11.360Z,86.90
2019-03-25T11:52:40.536Z,86.00
2019-03-25T11:55:10.290Z,84.50
2019-03-25T11:57:39.496Z,84.80
2019-03-25T12:00:09.224Z,83.90
2019-03-25T12:02:38.409Z,87.50
2019-03-25T12:05:08.024Z,83.70
2019-03-25T12:07:37.133Z,80.80
2019-03-25T12:10:07.623Z,78.90
2019-03-25T12:12:38.290Z,79.90
2019-03-25T12:15:08.180Z,81.20
2019-03-25T12:17:37.209Z,78.70
2019-03-25T12:20:07.784Z,82.20
2019-03-25T12:22:36.914Z,78.00
2019-03-25T12:25:08.272Z,78.30
2019-03-25T12:27:37.195Z,76.40
2019-03-25T12:30:08.280Z,78.30
2019-03-25T12:32:38.544Z,80.30
2019-03-25T12:35:07.793Z,77.70
2019-03-25T12:37:37.024Z,79.30
2019-03-25T12:40:07.904Z,76.20
2019-03-25T12:42:36.857Z,75.40
2019-03-25T12:45:09.952Z,78.50
2019-03-25T12:47:38.967Z,76.50
2019-03-25T12:50:09.160Z,74.20
2019-03-25T12:52:38.331Z,77.50
2019-03-25T12:55:07.930Z,79.00
2019-03-25T12:57:37.018Z,74.30
2019-03-25T13:00:07.519Z,76.00
2019-03-25T13:02:36.650Z,73.60
2019-03-25T13:05:06.927Z,76.20
2019-03-25T13:07:35.842Z,80.60
2019-03-25T13:10:06.657Z,77.00
2019-03-25T13:12:35.698Z,77.20
2019-03-25T13:15:08.369Z,75.50
2019-03-25T13:17:37.440Z,76.00
2019-03-25T13:20:07.120Z,75.80
2019-03-25T13:22:36.392Z,79.20
2019-03-25T13:25:06.919Z,81.40
2019-03-25T13:27:35.881Z,79.20
2019-03-25T13:30:07.586Z,80.70
2019-03-25T13:32:36.809Z,80.90
2019-03-25T13:35:07.872Z,81.50
2019-03-25T13:37:36.864Z,80.00
2019-03-25T13:40:07.129Z,82.50
2019-03-25T13:42:36.008Z,79.80
2019-03-25T13:45:07.700Z,81.40
2019-03-25T13:47:36.744Z,83.00
2019-03-25T13:50:07.296Z,80.30
2019-03-25T13:52:36.480Z,84.10
2019-03-25T13:55:06.696Z,85.60
2019-03-25T13:57:35.755Z,87.30
2019-03-25T14:00:07.057Z,86.20
2019-03-25T14:02:36.208Z,86.70
2019-03-25T14:05:06.373Z,86.70
2019-03-25T14:07:35.544Z,85.80
2019-03-25T14:10:07.296Z,85.90
2019-03-25T14:12:36.240Z,85.30
2019-03-25T14:15:07.536Z,86.80
2019-03-25T14:17:36.706Z,86.60
2019-03-25T14:20:11.312Z,86.70
2019-03-25T14:22:40.416Z,85.50
2019-03-25T14:25:09.767Z,85.30
2019-03-25T14:27:38.872Z,85.20
2019-03-25T14:30:14.516Z,87.60
2019-03-25T14:32:40.354Z,87.60
2019-03-25T14:35:09.330Z,88.40
2019-03-25T14:37:38.522Z,84.60
2019-03-25T14:40:08.609Z,87.00
2019-03-25T14:42:37.852Z,86.90
2019-03-25T14:45:07.769Z,87.60
2019-03-25T14:47:36.913Z,87.50
2019-03-25T14:50:07.936Z,88.80
2019-03-25T14:52:37.210Z,86.60
2019-03-25T14:55:06.437Z,84.90
2019-03-25T14:57:35.523Z,82.60
2019-03-25T15:00:09.554Z,82.70
2019-03-25T15:02:38.648Z,83.20
2019-03-25T15:05:08.393Z,85.90
2019-03-25T15:07:39.584Z,88.30
2019-03-25T15:10:10.624Z,87.20
2019-03-25T15:12:39.794Z,86.40
2019-03-25T15:15:10.371Z,86.90
2019-03-25T15:17:39.704Z,86.40
2019-03-25T15:20:10.245Z,86.50
2019-03-25T15:22:39.266Z,87.80
2019-03-25T15:25:10.035Z,87.40
2019-03-25T15:27:39.248Z,86.90
2019-03-25T15:30:10.594Z,86.50
2019-03-25T15:32:40.018Z,85.20
2019-03-25T15:35:09.331Z,85.90
2019-03-25T15:37:38.297Z,88.00
2019-03-25T15:40:09.275Z,87.60
2019-03-25T15:42:38.569Z,87.50
2019-03-25T15:45:09.522Z,88.80
2019-03-25T15:47:38.964Z,89.30
2019-03-25T15:50:09.587Z,87.60
2019-03-25T15:52:39.586Z,87.90
2019-03-25T15:55:10.426Z,88.20
2019-03-25T15:57:40.074Z,89.50
2019-03-25T16:00:18.417Z,88.00
2019-03-25T16:02:47.835Z,88.40
2019-03-25T16:05:17.377Z,89.60
2019-03-25T16:07:46.753Z,89.30
2019-03-25T16:10:19.072Z,88.60
2019-03-25T16:12:48.309Z,90.00
2019-03-25T16:15:40.267Z,90.20
2019-03-25T16:18:10.545Z,90.30
2019-03-25T16:20:39.513Z,90.90
2019-03-25T16:23:08.513Z,90.40
2019-03-25T16:25:37.456Z,90.70
2019-03-25T16:28:06.392Z,90.40
2019-03-25T16:30:35.464Z,90.20
2019-03-25T16:33:04.410Z,90.20
2019-03-25T16:35:33.737Z,90.50
2019-03-25T16:38:02.802Z,90.20
2019-03-25T16:40:32.249Z,90.00
2019-03-25T16:43:01.289Z,90.60
2019-03-25T16:45:30.458Z,91.00
2019-03-25T16:47:59.688Z,90.60
2019-03-25T16:50:28.866Z,90.70
2019-03-25T16:52:58.169Z,90.70
2019-03-25T16:55:27.609Z,91.00
2019-03-25T16:57:56.604Z,91.60
2019-03-25T17:00:27.675Z,90.80
2019-03-25T17:02:56.769Z,91.70
2019-03-25T17:05:25.904Z,91.70
2019-03-25T17:07:55.012Z,91.60
2019-03-25T17:10:24.225Z,91.70
2019-03-25T17:12:53.496Z,91.40
2019-03-25T17:15:22.897Z,91.40
2019-03-25T17:17:52.520Z,91.90
2019-03-25T17:20:21.681Z,92.10
2019-03-25T17:22:50.843Z,91.90
2019-03-25T17:25:20.226Z,92.00
2019-03-25T17:27:58.153Z,92.40
2019-03-25T17:30:27.480Z,92.40
2019-03-25T17:32:56.835Z,92.70
2019-03-25T17:35:26.043Z,93.10
2019-03-25T17:37:55.449Z,92.80
2019-03-25T17:40:24.738Z,93.00
2019-03-25T17:42:54.066Z,93.40
2019-03-25T17:45:23.457Z,93.40
2019-03-25T17:47:52.625Z,93.40
2019-03-25T17:50:21.882Z,93.70
2019-03-25T17:52:50.945Z,93.90
2019-03-25T17:55:20.128Z,94.10
2019-03-25T17:57:49.209Z,94.30
2019-03-25T18:00:37.898Z,94.10
2019-03-25T18:03:11.276Z,94.10
2019-03-25T18:05:37.970Z,94.10
2019-03-25T18:08:07.170Z,94.00
2019-03-25T18:10:36.658Z,93.80
2019-03-25T18:13:06.040Z,93.90
2019-03-25T18:15:35.385Z,93.80
2019-03-25T18:18:05.056Z,93.70
2019-03-25T18:20:34.082Z,93.40
2019-03-25T18:23:03.473Z,93.40
2019-03-25T18:25:34.521Z,93.50
2019-03-25T18:28:03.994Z,93.70
2019-03-25T18:30:34.400Z,93.80
2019-03-25T18:33:03.852Z,94.00
2019-03-25T18:35:32.938Z,94.00
2019-03-25T18:38:02.085Z,94.10
2019-03-25T18:40:31.372Z,94.20
2019-03-25T18:43:00.288Z,94.60
2019-03-25T18:45:29.536Z,94.40
2019-03-25T18:47:58.617Z,94.40
2019-03-25T18:50:27.675Z,94.40
2019-03-25T18:52:56.952Z,94.50
2019-03-25T18:55:26.167Z,94.40
2019-03-25T18:57:55.289Z,94.40
2019-03-25T19:00:35.100Z,94.80
2019-03-25T19:03:04.798Z,94.90
2019-03-25T19:05:34.788Z,95.00
2019-03-25T19:08:05.488Z,94.80
2019-03-25T19:10:34.589Z,95.20
2019-03-25T19:13:03.592Z,95.40
2019-03-25T19:15:32.824Z,95.70
2019-03-25T19:18:02.049Z,96.00
2019-03-25T19:20:31.273Z,96.00
2019-03-25T19:23:00.648Z,96.30
2019-03-25T19:25:30.152Z,96.20
2019-03-25T19:28:01.681Z,96.00
2019-03-25T19:30:31.151Z,96.40
2019-03-25T19:33:00.401Z,96.30
2019-03-25T19:35:30.352Z,96.70
2019-03-25T19:37:59.978Z,96.80
2019-03-25T19:40:32.153Z,96.50
2019-03-25T19:43:01.647Z,96.30
2019-03-25T19:45:31.090Z,96.20
2019-03-25T19:48:00.381Z,96.40
2019-03-25T19:50:29.533Z,96.40
2019-03-25T19:52:58.681Z,96.30
2019-03-25T19:55:27.962Z,96.40
2019-03-25T19:57:57.328Z,96.40
2019-03-25T20:00:44.675Z,96.10
2019-03-25T20:03:14.143Z,96.10
2019-03-25T20:05:45.252Z,96.20
2019-03-25T20:08:14.347Z,96.30
2019-03-25T20:10:43.788Z,96.10
2019-03-25T20:13:13.133Z,96.20
2019-03-25T20:15:46.469Z,96.00
2019-03-25T20:18:13.211Z,96.00
2019-03-25T20:20:42.240Z,95.90
2019-03-25T20:23:11.714Z,95.80
2019-03-25T20:25:40.961Z,95.80
2019-03-25T20:28:10.305Z,95.80
2019-03-25T20:30:39.772Z,95.80
2019-03-25T20:33:09.417Z,96.00
2019-03-25T20:35:40.490Z,96.20
2019-03-25T20:38:09.993Z,96.20
2019-03-25T20:40:47.514Z,96.40
2019-03-25T20:43:34.513Z,96.20
2019-03-25T20:46:03.906Z,96.30
2019-03-25T20:48:48.318Z,96.40
2019-03-25T20:51:52.777Z,96.20
2019-03-25T20:54:21.825Z,96.20
2019-03-25T20:57:14.180Z,96.40
2019-03-25T20:59:43.914Z,96.70
2019-03-25T21:02:13.721Z,96.80
2019-03-25T21:04:43.346Z,97.10
2019-03-25T21:07:24.564Z,97.50
2019-03-25T21:10:15.828Z,97.50
2019-03-25T21:12:58.403Z,97.80
2019-03-25T21:15:46.728Z,97.70
2019-03-25T21:18:24.705Z,97.60
2019-03-25T21:20:52.912Z,97.50
2019-03-25T21:23:22.592Z,97.70
2019-03-25T21:25:51.833Z,97.50
2019-03-25T21:28:24.553Z,97.80
2019-03-25T21:30:54.127Z,97.50
2019-03-25T21:33:23.726Z,97.40
2019-03-25T21:35:53.053Z,97.40
2019-03-25T21:38:22.604Z,97.30
2019-03-25T21:40:52.466Z,97.50
2019-03-25T21:43:21.770Z,97.50
2019-03-25T21:45:51.530Z,97.50
2019-03-25T21:48:21.141Z,97.80
2019-03-25T21:50:50.403Z,97.60
2019-03-25T21:53:19.865Z,97.90
2019-03-25T21:55:50.473Z,97.80
2019-03-25T21:58:19.878Z,97.70
2019-03-25T22:00:49.728Z,97.90
2019-03-25T22:03:19.024Z,98.10
2019-03-25T22:05:48.353Z,98.20
2019-03-25T22:08:17.873Z,98.10
2019-03-25T22:10:47.197Z,98.10
2019-03-25T22:13:16.242Z,98.10
2019-03-25T22:15:45.409Z,98.20
2019-03-25T22:18:14.985Z,98.20
2019-03-25T22:20:44.411Z,98.10
2019-03-25T22:23:13.816Z,97.90
2019-03-25T22:25:44.043Z,97.60
2019-03-25T22:28:13.357Z,97.30
2019-03-25T22:30:45.401Z,97.00
2019-03-25T22:33:25.650Z,96.80
2019-03-25T22:35:47.713Z,96.80
2019-03-25T22:38:17.338Z,97.10
2019-03-25T22:40:47.001Z,97.00
2019-03-25T22:43:16.033Z,97.10
2019-03-25T22:45:45.545Z,97.10
2019-03-25T22:48:14.779Z,97.00
2019-03-25T22:50:44.264Z,97.20
2019-03-25T22:53:13.777Z,97.50
2019-03-25T22:55:42.816Z,97.40
2019-03-25T22:58:12.032Z,97.30
2019-03-25T23:00:42.745Z,97.60
2019-03-25T23:03:13.288Z,97.50
2019-03-25T23:05:42.609Z,97.60
2019-03-25T23:08:11.526Z,97.60
2019-03-25T23:10:40.536Z,97.50
2019-03-25T23:13:09.824Z,97.40
2019-03-25T23:15:38.784Z,97.70
2019-03-25T23:18:08.225Z,97.80
2019-03-25T23:20:37.689Z,98.00
2019-03-25T23:23:07.224Z,98.20
2019-03-25T23:25:36.504Z,98.30
2019-03-25T23:28:05.779Z,98.60
2019-03-25T23:30:34.874Z,98.60
2019-03-25T23:33:03.898Z,98.80
2019-03-25T23:35:32.969Z,99.00
2019-03-25T23:38:03.992Z,99.00
2019-03-25T23:40:33.176Z,99.20
2019-03-25T23:43:02.321Z,99.20
2019-03-25T23:45:31.768Z,99.40
2019-03-25T23:48:01.068Z,99.30
2019-03-25T23:50:31.889Z,99.40
2019-03-25T23:53:00.904Z,99.30
2019-03-25T23:55:29.992Z,99.20
2019-03-25T23:57:58.897Z,99.50
